createdAt,value
2017-12-21T00:01:51.250Z,93.91
2017-12-21T00:06:52.080Z,93.54
2017-12-21T00:11:52.968Z,93.52
2017-12-21T00:16:53.769Z,93.38
2017-12-21T00:21:56.157Z,93.23
2017-12-21T00:27:03.538Z,92.88
2017-12-21T00:32:04.341Z,93.04
2017-12-21T00:37:05.210Z,92.65
2017-12-21T00:42:06.021Z,92.39
2017-12-21T00:47:10.249Z,91.70
2017-12-21T00:52:11.049Z,92.40
2017-12-21T00:57:11.893Z,92.20
2017-12-21T01:02:12.705Z,92.22
2017-12-21T01:07:13.566Z,92.40
2017-12-21T01:12:14.389Z,92.41
2017-12-21T01:17:15.250Z,91.54
2017-12-21T01:22:16.061Z,91.65
2017-12-21T01:27:16.890Z,91.33
2017-12-21T01:32:17.743Z,91.50
2017-12-21T01:37:18.578Z,91.32
2017-12-21T01:42:19.371Z,90.88
2017-12-21T01:47:20.180Z,90.86
2017-12-21T01:52:20.989Z,90.92
2017-12-21T01:57:35.302Z,90.94
2017-12-21T02:02:43.121Z,90.83
2017-12-21T02:07:43.974Z,90.77
2017-12-21T02:12:44.762Z,91.41
2017-12-21T02:17:45.577Z,91.19
2017-12-21T02:22:59.558Z,90.55
2017-12-21T02:28:00.424Z,90.77
2017-12-21T02:33:01.270Z,90.24
2017-12-21T02:38:02.118Z,90.98
2017-12-21T02:43:07.134Z,91.05
2017-12-21T02:48:07.970Z,91.22
2017-12-21T02:53:08.784Z,92.03
2017-12-21T02:58:09.626Z,92.17
2017-12-21T03:03:10.447Z,92.61
2017-12-21T03:08:11.341Z,92.61
2017-12-21T03:13:12.168Z,92.46
2017-12-21T03:18:13.035Z,92.69
2017-12-21T03:23:13.847Z,91.83
2017-12-21T03:28:14.673Z,91.71
2017-12-21T03:33:15.518Z,91.79
2017-12-21T03:38:16.315Z,91.57
2017-12-21T03:43:17.095Z,91.54
2017-12-21T03:53:47.736Z,91.60
2017-12-21T03:58:48.537Z,92.03
2017-12-21T04:03:49.381Z,91.23
2017-12-21T04:08:50.192Z,91.67
2017-12-21T04:13:50.989Z,91.61
2017-12-21T04:18:51.826Z,91.55
2017-12-21T04:23:52.622Z,91.38
2017-12-21T04:28:53.447Z,91.57
2017-12-21T04:33:54.277Z,91.40
2017-12-21T04:38:55.114Z,91.60
2017-12-21T04:43:55.978Z,92.00
2017-12-21T04:48:56.766Z,91.97
2017-12-21T04:53:57.609Z,91.95
2017-12-21T04:58:58.462Z,92.07
2017-12-21T05:03:59.258Z,92.17
2017-12-21T05:09:00.129Z,92.01
2017-12-21T05:14:04.263Z,92.30
2017-12-21T05:19:05.081Z,92.09
2017-12-21T05:24:05.941Z,92.33
2017-12-21T05:29:06.764Z,93.07
2017-12-21T05:34:09.589Z,92.65
2017-12-21T05:39:10.436Z,92.94
2017-12-21T05:44:11.222Z,92.88
2017-12-21T05:49:12.032Z,92.61
2017-12-21T05:54:12.847Z,92.86
2017-12-21T05:59:13.649Z,92.58
2017-12-21T06:04:14.469Z,92.28
2017-12-21T06:09:15.278Z,92.70
2017-12-21T06:14:16.086Z,92.92
2017-12-21T06:19:16.909Z,93.31
2017-12-21T06:24:35.450Z,94.10
2017-12-21T06:29:36.280Z,94.29
2017-12-21T06:34:37.098Z,94.17
2017-12-21T06:39:37.887Z,94.39
2017-12-21T06:44:38.702Z,94.28
2017-12-21T06:49:39.510Z,94.45
2017-12-21T06:54:40.314Z,94.37
2017-12-21T06:59:48.714Z,94.50
2017-12-21T07:04:49.505Z,94.21
2017-12-21T07:09:50.401Z,94.31
2017-12-21T07:14:54.574Z,94.39
2017-12-21T07:19:55.390Z,94.46
2017-12-21T07:24:56.193Z,94.01
2017-12-21T07:29:57.010Z,94.09
2017-12-21T07:34:57.805Z,94.33
2017-12-21T07:39:58.621Z,93.79
2017-12-21T07:44:59.421Z,93.60
2017-12-21T07:50:00.240Z,93.60
2017-12-21T07:55:01.053Z,93.23
2017-12-21T08:00:01.877Z,93.25
2017-12-21T08:05:02.686Z,93.28
2017-12-21T08:10:03.558Z,93.20
2017-12-21T08:15:24.787Z,93.35
2017-12-21T08:20:25.678Z,93.29
2017-12-21T08:25:32.749Z,93.11
2017-12-21T08:30:33.613Z,92.64
2017-12-21T08:35:34.443Z,92.88
2017-12-21T08:40:35.274Z,92.51
2017-12-21T08:45:36.078Z,92.88
2017-12-21T08:50:40.001Z,92.42
2017-12-21T08:55:40.802Z,92.17
2017-12-21T09:00:41.604Z,90.93
2017-12-21T09:05:42.409Z,91.23
2017-12-21T09:16:12.414Z,90.77
2017-12-21T09:27:05.313Z,91.18
2017-12-21T09:32:06.151Z,91.33
2017-12-21T09:37:06.954Z,90.40
2017-12-21T09:42:07.822Z,90.16
2017-12-21T09:47:08.641Z,89.59
2017-12-21T09:52:10.462Z,90.03
2017-12-21T09:57:11.301Z,90.45
2017-12-21T10:02:12.111Z,90.17
2017-12-21T10:07:16.937Z,89.65
2017-12-21T10:12:23.198Z,88.99
2017-12-21T10:17:26.040Z,88.73
2017-12-21T10:22:26.924Z,87.94
2017-12-21T10:27:27.773Z,88.60
2017-12-21T10:32:28.633Z,88.49
2017-12-21T10:37:29.460Z,88.44
2017-12-21T10:42:44.816Z,87.25
2017-12-21T10:47:50.971Z,89.04
2017-12-21T10:52:59.237Z,87.78
2017-12-21T10:58:04.537Z,88.01
2017-12-21T11:03:07.405Z,88.06
2017-12-21T11:08:20.470Z,88.79
2017-12-21T11:13:24.994Z,88.14
2017-12-21T11:18:40.663Z,87.35
2017-12-21T11:23:48.355Z,87.13
2017-12-21T11:28:59.465Z,87.18
2017-12-21T11:39:34.594Z,87.13
2017-12-21T11:44:59.616Z,86.90
2017-12-21T11:50:12.213Z,87.70
2017-12-21T11:55:23.581Z,87.46
2017-12-21T12:00:30.705Z,86.82
2017-12-21T12:05:52.297Z,86.69
2017-12-21T12:10:53.114Z,86.71
2017-12-21T12:15:53.893Z,85.99
2017-12-21T12:26:31.463Z,87.07
2017-12-21T12:31:38.715Z,86.86
2017-12-21T12:36:39.521Z,87.27
2017-12-21T12:41:50.489Z,87.87
2017-12-21T12:46:51.317Z,88.40
2017-12-21T12:51:52.986Z,88.25
2017-12-21T12:56:53.814Z,89.26
2017-12-21T13:01:54.697Z,88.79
2017-12-21T13:06:57.558Z,90.00
2017-12-21T13:12:04.466Z,90.56
2017-12-21T13:17:05.300Z,90.68
2017-12-21T13:22:08.129Z,90.53
2017-12-21T13:27:08.951Z,91.06
2017-12-21T13:32:09.771Z,91.82
2017-12-21T13:37:13.705Z,92.03
2017-12-21T13:42:14.513Z,92.41
2017-12-21T13:47:16.331Z,92.56
2017-12-21T13:52:27.167Z,93.15
2017-12-21T13:57:33.091Z,93.39
2017-12-21T14:02:40.168Z,93.93
2017-12-21T14:07:45.006Z,94.00
2017-12-21T14:12:47.856Z,93.91
2017-12-21T14:17:52.134Z,94.25
2017-12-21T14:22:52.978Z,94.12
2017-12-21T14:27:53.810Z,94.42
2017-12-21T14:32:55.685Z,94.46
2017-12-21T14:38:21.373Z,94.18
2017-12-21T14:43:44.878Z,94.66
2017-12-21T14:48:47.762Z,94.80
2017-12-21T14:54:12.813Z,94.96
2017-12-21T14:59:32.041Z,95.15
2017-12-21T15:04:32.886Z,94.85
2017-12-21T15:09:37.587Z,95.25
2017-12-21T15:14:42.259Z,95.37
2017-12-21T15:19:56.449Z,95.37
2017-12-21T15:24:57.310Z,95.02
2017-12-21T15:35:32.113Z,94.77
2017-12-21T15:51:48.911Z,95.01
2017-12-21T15:56:55.781Z,95.26
2017-12-21T16:18:20.418Z,95.40
2017-12-21T16:34:27.753Z,95.78
2017-12-21T16:50:41.660Z,95.88
2017-12-21T16:55:43.495Z,96.04
2017-12-21T17:01:08.897Z,96.00
2017-12-21T17:38:56.842Z,95.08
2017-12-21T17:43:57.808Z,95.08
2017-12-21T17:54:34.337Z,94.91
2017-12-21T17:59:35.187Z,94.70
2017-12-21T18:04:36.092Z,94.50
2017-12-21T18:09:37.921Z,93.82
2017-12-21T18:14:42.825Z,93.89
2017-12-21T18:19:55.342Z,93.99
2017-12-21T18:24:56.213Z,93.93
2017-12-21T18:29:57.105Z,93.92
2017-12-21T18:34:58.065Z,93.53
2017-12-21T18:39:58.869Z,93.46
2017-12-21T18:44:59.722Z,93.56
2017-12-21T18:50:00.621Z,93.80
2017-12-21T18:55:01.568Z,93.93
2017-12-21T19:00:02.460Z,94.24
2017-12-21T19:05:03.347Z,94.02
2017-12-21T19:10:04.235Z,94.24
2017-12-21T19:15:27.510Z,94.38
2017-12-21T19:20:35.447Z,94.39
2017-12-21T19:25:36.291Z,94.44
2017-12-21T19:30:45.748Z,94.46
2017-12-21T19:35:46.633Z,94.38
2017-12-21T19:40:53.804Z,94.57
2017-12-21T19:45:57.791Z,93.92
2017-12-21T19:50:58.721Z,94.07
2017-12-21T19:56:21.210Z,93.98
2017-12-21T20:01:32.409Z,93.98
2017-12-21T20:06:57.546Z,94.17
2017-12-21T20:12:19.584Z,94.40
2017-12-21T20:17:20.490Z,94.42
2017-12-21T20:22:25.441Z,94.36
2017-12-21T20:27:26.390Z,94.58
2017-12-21T20:32:30.502Z,94.63
2017-12-21T20:37:31.444Z,95.06
2017-12-21T20:42:34.301Z,94.90
2017-12-21T20:47:38.758Z,94.97
2017-12-21T20:52:39.620Z,94.94
2017-12-21T20:57:46.632Z,95.01
2017-12-21T21:02:48.515Z,94.98
2017-12-21T21:08:14.368Z,95.19
2017-12-21T21:19:00.552Z,95.49
2017-12-21T21:24:01.413Z,95.64
2017-12-21T21:29:19.176Z,95.70
2017-12-21T21:34:20.062Z,95.77
2017-12-21T21:39:20.924Z,95.70
2017-12-21T21:44:42.416Z,95.70
2017-12-21T21:49:43.225Z,95.68
2017-12-21T21:54:45.071Z,95.67
2017-12-21T21:59:45.920Z,95.74
2017-12-21T22:04:54.767Z,95.67
2017-12-21T22:09:55.679Z,95.57
2017-12-21T22:14:59.728Z,95.62
2017-12-21T22:20:10.586Z,95.43
2017-12-21T22:25:11.484Z,95.46
2017-12-21T22:30:19.519Z,95.62
2017-12-21T22:35:20.378Z,95.50
2017-12-21T22:40:21.243Z,95.74
2017-12-21T22:45:28.281Z,95.79
2017-12-21T22:50:29.129Z,95.75
2017-12-21T23:00:57.745Z,95.89
2017-12-21T23:05:59.371Z,95.96
2017-12-21T23:11:00.219Z,95.88
2017-12-21T23:16:07.353Z,96.26
2017-12-21T23:21:08.157Z,96.31
2017-12-21T23:26:30.192Z,96.39
2017-12-21T23:31:31.050Z,96.38
2017-12-21T23:36:35.971Z,96.46
2017-12-21T23:41:53.925Z,96.38
2017-12-21T23:46:54.785Z,96.25
2017-12-21T23:51:55.617Z,96.26
2017-12-21T23:56:56.483Z,95.98
